Time;durP1;ratioP1;P1;durP2;ratioP2;P2;SDS_P1;SDS_P2;PMS_P1;PMS_P2;Temp;Humidity;BMP_temperature;BMP_pressure;BME280_temperature;BME280_humidity;BME280_pressure;Samples;Min_cycle;Max_cycle;Signal;HPM_P1;HPM_P2
2022/04/13 00:01:22;;;;;;;9.77;4.53;;;;;;;5.51;71.45;98427.81;4162093;28;20083;-72
2022/04/13 00:03:22;;;;;;;7.35;4.05;;;;;;;5.42;72.03;98432.63;4158496;28;20059;-71
2022/04/13 00:05:23;;;;;;;5.20;3.55;;;;;;;5.40;71.70;98420.41;4163072;28;20535;-71
2022/04/13 00:07:24;;;;;;;6.80;3.90;;;;;;;5.40;71.59;98432.19;4161489;28;20045;-72
2022/04/13 00:09:24;;;;;;;4.88;3.47;;;;;;;5.36;73.11;98429.31;4162642;28;20098;-72
2022/04/13 00:11:24;;;;;;;6.45;4.50;;;;;;;5.32;72.54;98417.44;4162187;28;20136;-72
2022/04/13 00:13:25;;;;;;;6.35;4.10;;;;;;;5.29;72.89;98420.88;4162149;28;20053;-72
2022/04/13 00:15:25;;;;;;;4.78;3.38;;;;;;;5.26;72.87;98420.75;4163786;28;20053;-72
2022/04/13 00:17:25;;;;;;;5.75;3.97;;;;;;;5.24;73.32;98421.13;4156867;28;20041;-71
2022/04/13 00:19:26;;;;;;;6.70;5.13;;;;;;;5.23;72.64;98425.00;4162825;28;20513;-71
2022/04/13 00:21:26;;;;;;;7.80;3.78;;;;;;;5.18;73.20;98419.75;4158582;28;20065;-71
2022/04/13 00:23:27;;;;;;;5.28;3.92;;;;;;;5.17;72.99;98409.13;4163756;28;20406;-71
2022/04/13 00:25:28;;;;;;;7.40;4.10;;;;;;;5.19;72.80;98415.84;4162637;28;20041;-72
2022/04/13 00:27:28;;;;;;;7.95;4.03;;;;;;;5.20;71.99;98420.19;4158323;28;20040;-71
2022/04/13 00:29:30;;;;;;;5.43;3.33;;;;;;;5.21;72.31;98413.59;4158477;28;20052;-71
2022/04/13 00:31:30;;;;;;;5.88;4.53;;;;;;;5.19;72.16;98412.31;4163944;28;20385;-71
2022/04/13 00:33:32;;;;;;;6.93;4.07;;;;;;;5.15;71.90;98414.94;4162767;28;20114;-71
2022/04/13 00:35:32;;;;;;;5.60;4.00;;;;;;;5.10;72.14;98409.69;4162945;28;20330;-72
2022/04/13 00:37:33;;;;;;;7.93;4.20;;;;;;;5.11;71.66;98411.28;4162827;28;20473;-72
2022/04/13 00:39:33;;;;;;;5.50;3.85;;;;;;;5.05;72.90;98410.72;4162489;28;20049;-72
2022/04/13 00:41:34;;;;;;;7.53;4.25;;;;;;;5.00;73.48;98413.69;4156976;28;20477;-72
2022/04/13 00:43:34;;;;;;;5.72;4.32;;;;;;;4.97;74.56;98419.06;4158060;28;20080;-71
2022/04/13 00:45:35;;;;;;;6.50;4.20;;;;;;;4.93;74.58;98409.91;4162068;28;20063;-72
2022/04/13 00:47:40;;;;;;;6.93;4.13;;;;;;;4.94;74.56;98412.31;4161804;28;20041;-72
2022/04/13 00:49:41;;;;;;;7.82;4.05;;;;;;;4.92;74.58;98413.81;4161935;28;20424;-71
2022/04/13 00:51:41;;;;;;;6.38;4.07;;;;;;;4.86;75.08;98404.19;4157646;28;20045;-72
2022/04/13 00:53:42;;;;;;;7.10;4.13;;;;;;;4.80;74.91;98406.38;4162019;28;20046;-71
2022/04/13 00:55:43;;;;;;;6.47;4.20;;;;;;;4.77;75.05;98409.78;4160620;28;20506;-72
2022/04/13 00:57:45;;;;;;;6.35;3.95;;;;;;;4.77;74.88;98415.28;4158584;28;20046;-71
2022/04/13 00:59:51;;;;;;;6.45;3.97;;;;;;;4.77;74.19;98409.78;4160181;28;20045;-71
2022/04/13 01:01:56;;;;;;;6.05;3.90;;;;;;;4.71;74.19;98419.38;4157200;28;20052;-72
2022/04/13 01:03:59;;;;;;;7.63;4.18;;;;;;;4.70;73.67;98418.56;4162466;28;20473;-71
2022/04/13 01:06:00;;;;;;;9.10;4.03;;;;;;;4.67;74.31;98413.78;4158087;28;20398;-71
2022/04/13 01:08:01;;;;;;;7.20;4.00;;;;;;;4.60;74.80;98413.53;4161136;28;20046;-71
2022/04/13 01:10:06;;;;;;;5.03;3.65;;;;;;;4.67;73.61;98416.53;4158481;28;20052;-71
2022/04/13 01:12:07;;;;;;;8.05;4.10;;;;;;;4.67;75.31;98418.47;4161647;28;20080;-72
2022/04/13 01:14:09;;;;;;;4.65;3.42;;;;;;;4.62;74.76;98414.00;4160371;28;20030;-71
2022/04/13 01:16:10;;;;;;;6.30;3.50;;;;;;;4.64;75.79;98419.16;4160542;28;20404;-72
2022/04/13 01:18:11;;;;;;;8.23;4.18;;;;;;;4.66;74.26;98416.88;4155655;28;20123;-72
2022/04/13 01:20:12;;;;;;;6.60;4.45;;;;;;;4.62;75.86;98424.94;4156454;28;20037;-71
2022/04/13 01:22:20;;;;;;;5.88;3.90;;;;;;;4.60;77.57;98421.75;4162866;28;20040;-71
2022/04/13 01:24:21;;;;;;;7.10;3.78;;;;;;;4.55;78.48;98426.66;4163329;28;20107;-72
2022/04/13 01:26:21;;;;;;;7.55;3.80;;;;;;;4.48;78.11;98429.97;4160665;28;20288;-71
2022/04/13 01:28:23;;;;;;;7.43;3.72;;;;;;;4.46;77.41;98434.97;4160266;28;20385;-71
2022/04/13 01:30:24;;;;;;;7.07;3.83;;;;;;;4.42;77.17;98436.78;4160266;28;20405;-72
2022/04/13 01:32:24;;;;;;;5.45;3.65;;;;;;;4.39;77.21;98432.00;4166904;28;20372;-72
2022/04/13 01:34:25;;;;;;;4.70;3.42;;;;;;;4.37;77.28;98435.06;4160909;28;20042;-71
2022/04/13 01:36:26;;;;;;;5.40;3.50;;;;;;;4.32;77.50;98429.81;4164131;28;20200;-71
2022/04/13 01:38:30;;;;;;;4.97;3.95;;;;;;;4.28;78.11;98437.09;4164306;28;20040;-72
2022/04/13 01:40:31;;;;;;;4.07;3.15;;;;;;;4.29;77.76;98437.88;4161427;28;20588;-72
2022/04/13 01:42:32;;;;;;;7.13;3.40;;;;;;;4.26;77.33;98433.88;4160395;28;20132;-72
2022/04/13 01:44:32;;;;;;;5.32;3.95;;;;;;;4.24;78.41;98433.44;4165036;28;20499;-72
2022/04/13 01:46:32;;;;;;;5.10;3.70;;;;;;;4.18;78.46;98432.03;4166137;28;20558;-71
2022/04/13 01:48:33;;;;;;;5.88;3.65;;;;;;;4.15;78.94;98433.50;4158098;28;20042;-71
2022/04/13 01:50:33;;;;;;;4.90;3.83;;;;;;;4.11;78.59;98434.50;4162418;28;20459;-71
2022/04/13 01:52:33;;;;;;;6.57;4.00;;;;;;;4.06;79.48;98435.53;4164208;28;20052;-71
2022/04/13 01:54:35;;;;;;;6.22;3.53;;;;;;;4.05;79.71;98438.59;4160856;28;20052;-71
2022/04/13 01:56:35;;;;;;;7.80;3.80;;;;;;;4.03;80.28;98438.94;4159822;28;20041;-72
2022/04/13 01:58:35;;;;;;;7.35;3.67;;;;;;;4.06;81.63;98440.22;4162560;28;20180;-71
2022/04/13 02:00:36;;;;;;;5.47;3.83;;;;;;;3.98;80.84;98441.88;4163122;28;20037;-72
2022/04/13 02:02:37;;;;;;;6.15;3.90;;;;;;;3.89;81.09;98439.22;4160202;28;20042;-72
2022/04/13 02:04:37;;;;;;;10.63;4.88;;;;;;;3.83;81.20;98443.28;4163594;28;20040;-71
2022/04/13 02:06:38;;;;;;;5.35;3.88;;;;;;;3.80;81.34;98449.41;4162253;28;20265;-71
2022/04/13 02:08:39;;;;;;;9.25;3.72;;;;;;;3.77;81.50;98447.34;4166190;28;20044;-72
2022/04/13 02:10:39;;;;;;;6.30;3.60;;;;;;;3.75;81.56;98446.09;4160080;28;20053;-71
2022/04/13 02:12:41;;;;;;;8.30;4.07;;;;;;;3.70;81.94;98449.03;4168033;28;20504;-71
2022/04/13 02:14:42;;;;;;;5.05;3.60;;;;;;;3.71;81.73;98450.63;4162571;28;20048;-71
2022/04/13 02:16:42;;;;;;;7.45;4.00;;;;;;;3.72;80.01;98450.28;4163881;28;20049;-72
2022/04/13 02:18:43;;;;;;;6.80;4.25;;;;;;;3.75;80.36;98459.78;4163125;28;20033;-71
2022/04/13 02:20:43;;;;;;;4.72;3.47;;;;;;;3.73;80.63;98448.38;4159926;28;20069;-71
2022/04/13 02:22:45;;;;;;;6.28;3.78;;;;;;;3.74;80.27;98449.97;4157911;28;20230;-71
2022/04/13 02:24:45;;;;;;;4.80;3.67;;;;;;;3.72;80.14;98463.97;4158026;28;20053;-72
2022/04/13 02:26:45;;;;;;;6.68;3.80;;;;;;;3.69;80.30;98453.69;4162943;28;20555;-72
2022/04/13 02:28:46;;;;;;;5.70;3.90;;;;;;;3.73;79.04;98456.59;4165538;28;20119;-71
2022/04/13 02:30:46;;;;;;;5.30;3.78;;;;;;;3.67;80.12;98450.50;4159756;28;20047;-72
2022/04/13 02:32:47;;;;;;;6.90;4.30;;;;;;;3.65;80.57;98445.38;4160724;28;20040;-72
2022/04/13 02:34:48;;;;;;;5.30;3.92;;;;;;;3.67;80.19;98439.56;4161307;28;20052;-71
2022/04/13 02:36:49;;;;;;;6.43;3.88;;;;;;;3.70;80.09;98447.09;4159256;28;20944;-71
2022/04/13 02:38:49;;;;;;;6.03;3.60;;;;;;;3.67;80.42;98445.03;4163848;28;20049;-71
2022/04/13 02:40:50;;;;;;;5.68;3.92;;;;;;;3.69;79.54;98448.22;4162288;28;20473;-71
2022/04/13 02:42:50;;;;;;;7.75;4.07;;;;;;;3.76;78.23;98448.50;4161689;28;20093;-71
2022/04/13 02:44:50;;;;;;;7.45;4.15;;;;;;;3.73;79.63;98445.63;4162364;28;20049;-71
2022/04/13 02:46:51;;;;;;;5.97;3.90;;;;;;;3.69;79.98;98442.75;4161393;28;20544;-71
2022/04/13 02:48:51;;;;;;;7.72;3.80;;;;;;;3.71;79.64;98447.88;4162938;28;20086;-72
2022/04/13 02:50:52;;;;;;;6.22;4.18;;;;;;;3.67;80.57;98443.09;4159511;28;20393;-71
2022/04/13 02:52:54;;;;;;;8.50;4.68;;;;;;;3.69;80.66;98450.16;4163806;28;20043;-72
2022/04/13 02:54:55;;;;;;;;;;;;;;;3.66;81.57;98448.91;4164000;28;20048;-71
2022/04/13 02:56:56;;;;;;;6.45;4.10;;;;;;;3.61;82.47;98454.56;4158301;28;19987;-71
2022/04/13 02:58:56;;;;;;;5.25;3.90;;;;;;;3.59;82.58;98449.41;4161953;28;20041;-71
2022/04/13 03:00:56;;;;;;;5.63;4.00;;;;;;;3.58;83.72;98452.50;4162123;28;20132;-72
2022/04/13 03:02:57;;;;;;;7.07;3.80;;;;;;;3.53;83.33;98458.16;4164864;28;20319;-71
2022/04/13 03:04:57;;;;;;;5.35;3.78;;;;;;;3.44;84.36;98444.53;4159319;28;20044;-71
2022/04/13 03:06:58;;;;;;;7.95;4.22;;;;;;;3.40;83.88;98445.53;4157913;28;20389;-71
2022/04/13 03:08:59;;;;;;;6.20;3.67;;;;;;;3.35;83.89;98446.53;4163829;28;20115;-72
2022/04/13 03:10:59;;;;;;;6.97;4.30;;;;;;;3.36;83.95;98451.66;4161080;28;20041;-71
2022/04/13 03:12:59;;;;;;;5.40;3.88;;;;;;;3.32;83.36;98445.25;4162516;28;20072;-71
2022/04/13 03:15:01;;;;;;;5.82;4.05;;;;;;;3.34;82.85;98444.94;4161556;28;20125;-72
2022/04/13 03:17:02;;;;;;;6.57;4.38;;;;;;;3.37;82.34;98436.06;4161873;28;20543;-71
2022/04/13 03:19:02;;;;;;;7.55;3.95;;;;;;;3.37;82.19;98441.50;4160220;28;20120;-71
2022/04/13 03:21:02;;;;;;;7.72;4.07;;;;;;;3.42;80.61;98440.53;4161603;28;20045;-72
2022/04/13 03:23:03;;;;;;;4.80;3.53;;;;;;;3.43;81.00;98434.72;4163106;28;20041;-71
2022/04/13 03:25:04;;;;;;;6.95;3.80;;;;;;;3.43;81.56;98434.72;4159859;28;20436;-71
2022/04/13 03:27:04;;;;;;;5.38;3.72;;;;;;;3.44;81.59;98441.78;4160815;28;20355;-71
2022/04/13 03:29:04;;;;;;;7.00;3.50;;;;;;;3.45;80.98;98434.41;4161008;28;20071;-72
2022/04/13 03:31:05;;;;;;;6.55;3.60;;;;;;;3.41;81.43;98441.66;4164649;28;20190;-72
2022/04/13 03:33:05;;;;;;;6.25;4.38;;;;;;;3.38;84.38;98460.31;4161356;28;20045;-71
2022/04/13 03:35:07;;;;;;;5.95;3.90;;;;;;;3.38;84.46;98454.84;4159166;28;20140;-71
2022/04/13 03:37:07;;;;;;;8.10;4.47;;;;;;;3.38;83.85;98451.31;4162498;28;20045;-72
2022/04/13 03:39:08;;;;;;;8.65;4.72;;;;;;;3.40;83.26;98443.59;4159843;28;20049;-71
2022/04/13 03:41:09;;;;;;;7.93;4.65;;;;;;;3.47;81.67;98454.00;4162929;28;20596;-71
2022/04/13 03:43:09;;;;;;;8.40;5.18;;;;;;;3.44;82.23;98446.47;4161598;28;20091;-71
2022/04/13 03:45:11;;;;;;;8.27;4.38;;;;;;;3.44;82.73;98438.25;4159367;28;20045;-71
2022/04/13 03:47:12;;;;;;;8.02;4.38;;;;;;;3.51;80.25;98455.75;4160180;28;20060;-71
2022/04/13 03:49:12;;;;;;;7.10;4.00;;;;;;;3.51;81.36;98454.97;4162027;28;20543;-71
2022/04/13 03:51:12;;;;;;;6.72;4.10;;;;;;;3.49;81.97;98449.03;4159846;28;20580;-71
2022/04/13 03:53:13;;;;;;;8.52;4.65;;;;;;;3.54;81.00;98457.81;4159923;28;20358;-71
2022/04/13 03:55:13;;;;;;;9.27;5.20;;;;;;;3.50;83.57;98450.63;4166978;28;20182;-71
2022/04/13 03:57:14;;;;;;;6.82;4.57;;;;;;;3.44;83.68;98450.00;4163497;28;20580;-71
2022/04/13 03:59:14;;;;;;;6.43;4.38;;;;;;;3.45;83.28;98453.53;4164273;28;20377;-71
2022/04/13 04:01:15;;;;;;;9.65;5.43;;;;;;;3.40;82.15;98451.81;4155234;28;20203;-71
2022/04/13 04:03:15;;;;;;;6.60;3.63;;;;;;;3.43;82.89;98450.34;4161098;28;20160;-71
2022/04/13 04:05:17;;;;;;;7.35;4.78;;;;;;;3.38;84.76;98451.31;4160410;28;20057;-71
2022/04/13 04:07:17;;;;;;;7.72;4.13;;;;;;;3.34;84.96;98443.00;4160385;28;20367;-72
2022/04/13 04:09:17;;;;;;;10.63;4.22;;;;;;;3.36;84.32;98450.84;4161099;28;20092;-71
2022/04/13 04:11:18;;;;;;;6.78;4.25;;;;;;;3.33;84.92;98451.53;4162702;28;20048;-71
2022/04/13 04:13:19;;;;;;;7.50;3.88;;;;;;;3.28;85.12;98457.19;4159203;28;20385;-71
2022/04/13 04:15:20;;;;;;;5.65;4.05;;;;;;;3.28;84.92;98452.50;4162132;28;20046;-71
2022/04/13 04:17:20;;;;;;;6.07;3.88;;;;;;;3.25;85.08;98455.91;4160089;28;20406;-71
2022/04/13 04:19:21;;;;;;;6.25;4.63;;;;;;;3.25;85.01;98455.13;4160119;28;20049;-71
2022/04/13 04:21:21;;;;;;;11.45;8.07;;;;;;;3.23;85.10;98463.66;4161136;28;20049;-71
2022/04/13 04:23:22;;;;;;;11.85;8.80;;;;;;;3.25;85.25;98472.31;4160649;28;20050;-72
2022/04/13 04:25:22;;;;;;;9.70;5.50;;;;;;;3.27;84.51;98459.13;4158989;28;20071;-71
2022/04/13 04:27:23;;;;;;;5.60;3.85;;;;;;;3.29;83.59;98453.31;4158505;28;20368;-71
2022/04/13 04:29:24;;;;;;;7.03;3.97;;;;;;;3.32;83.52;98452.66;4162066;28;20054;-71
2022/04/13 04:33:43;;;;;;;4.88;3.47;;;;;;;3.33;84.87;98459.72;4156898;28;20485;-71
2022/04/13 04:35:50;;;;;;;8.85;4.72;;;;;;;3.30;85.57;98466.66;4160714;28;20046;-72
2022/04/13 04:37:50;;;;;;;5.80;3.42;;;;;;;3.28;86.08;98454.44;4160464;28;20226;-71
2022/04/13 04:39:51;;;;;;;10.00;4.03;;;;;;;3.29;84.80;98465.03;4159920;28;20042;-71
2022/04/13 04:41:52;;;;;;;7.70;3.97;;;;;;;3.29;84.60;98456.03;4160359;28;20045;-71
2022/04/13 04:43:52;;;;;;;4.75;3.58;;;;;;;3.30;85.25;98471.31;4163773;28;20051;-72
2022/04/13 04:45:52;;;;;;;5.75;4.05;;;;;;;3.32;85.55;98466.34;4160821;28;20481;-71
2022/04/13 04:47:53;;;;;;;6.78;3.63;;;;;;;3.37;84.40;98460.66;4157837;28;20098;-71
2022/04/13 04:49:53;;;;;;;7.18;4.05;;;;;;;3.41;82.90;98460.81;4157913;28;20049;-71
2022/04/13 04:51:54;;;;;;;8.32;4.65;;;;;;;3.42;84.36;98467.88;4161392;28;20052;-71
2022/04/13 04:53:54;;;;;;;9.05;3.90;;;;;;;3.38;86.03;98470.47;4097121;28;20095;-72
2022/04/13 04:55:54;;;;;;;8.05;4.18;;;;;;;3.42;86.01;98476.91;4157409;28;20072;-71
2022/04/13 04:57:55;;;;;;;6.65;4.22;;;;;;;3.47;86.19;98471.22;4164070;28;20048;-71
2022/04/13 04:59:55;;;;;;;6.95;4.68;;;;;;;3.49;85.80;98468.16;4163799;28;20281;-71
2022/04/13 05:01:55;;;;;;;6.80;4.50;;;;;;;3.49;85.12;98460.75;4161959;28;20114;-72
2022/04/13 05:03:56;;;;;;;8.27;4.53;;;;;;;3.55;84.54;98464.88;4163444;28;20455;-71
2022/04/13 05:05:56;;;;;;;10.02;5.00;;;;;;;3.56;86.04;98471.19;4166977;28;20052;-71
2022/04/13 05:07:56;;;;;;;6.78;4.28;;;;;;;3.61;85.98;98469.03;4162636;28;20389;-71
2022/04/13 05:09:58;;;;;;;8.10;4.90;;;;;;;3.65;85.94;98474.66;4164706;28;20049;-71
2022/04/13 05:11:58;;;;;;;10.15;4.57;;;;;;;3.69;86.43;98474.78;4165130;28;20048;-71
2022/04/13 05:13:58;;;;;;;7.57;5.18;;;;;;;3.71;86.06;98473.31;4162732;28;20045;-71
2022/04/13 05:15:59;;;;;;;6.13;4.45;;;;;;;3.75;85.83;98479.72;4164071;28;20049;-71
2022/04/13 05:17:59;;;;;;;9.40;4.35;;;;;;;3.78;85.75;98476.31;4162684;28;20041;-71
2022/04/13 05:19:59;;;;;;;6.43;4.43;;;;;;;3.82;85.45;98471.00;4163300;28;20106;-71
2022/04/13 05:22:00;;;;;;;12.40;4.90;;;;;;;3.87;86.15;98479.78;4164865;28;20074;-71
2022/04/13 05:24:03;;;;;;;8.77;4.82;;;;;;;3.91;85.45;98474.47;4160337;28;20390;-72
2022/04/13 05:26:04;;;;;;;10.05;4.60;;;;;;;3.99;85.00;98481.00;4164021;28;20408;-72
2022/04/13 05:28:05;;;;;;;9.95;4.65;;;;;;;4.03;85.11;98477.25;4158760;28;20025;-72
2022/04/13 05:30:07;;;;;;;8.32;5.00;;;;;;;4.08;84.78;98481.75;4160780;28;20044;-72
2022/04/13 05:32:07;;;;;;;9.52;6.00;;;;;;;4.10;84.58;98487.69;4160918;28;20119;-72
2022/04/13 05:34:08;;;;;;;8.77;5.13;;;;;;;4.20;84.38;98495.47;4161331;28;20140;-71
2022/04/13 05:36:08;;;;;;;14.05;5.53;;;;;;;4.24;85.30;98501.91;4162141;28;20028;-71
2022/04/13 05:38:09;;;;;;;8.30;5.50;;;;;;;4.31;84.88;98504.09;4164091;28;20638;-72
2022/04/13 05:40:10;;;;;;;7.55;4.97;;;;;;;4.39;84.23;98512.25;4164738;28;20031;-72
2022/04/13 05:42:11;;;;;;;7.32;4.53;;;;;;;4.46;83.90;98509.72;4159226;28;20312;-71
2022/04/13 05:44:11;;;;;;;10.85;5.20;;;;;;;4.54;84.00;98504.50;4164835;28;20041;-72
2022/04/13 05:46:11;;;;;;;7.00;4.88;;;;;;;4.62;83.76;98506.34;4162746;28;20151;-71
2022/04/13 05:48:12;;;;;;;6.30;4.70;;;;;;;4.74;83.33;98501.72;4162494;28;20492;-72
2022/04/13 05:50:13;;;;;;;7.75;4.97;;;;;;;4.85;82.96;98504.03;4161350;28;20029;-71
2022/04/13 05:52:15;;;;;;;7.18;4.95;;;;;;;4.90;81.75;98499.13;4160074;28;20532;-71
2022/04/13 05:54:16;;;;;;;7.20;4.85;;;;;;;4.98;81.50;98495.50;4165005;28;20094;-71
2022/04/13 05:56:16;;;;;;;10.60;5.05;;;;;;;5.08;81.37;98518.94;4164916;28;20102;-71
2022/04/13 05:58:17;;;;;;;9.95;5.28;;;;;;;5.15;81.67;98512.88;4159144;28;20037;-72
2022/04/13 06:00:17;;;;;;;8.75;5.35;;;;;;;5.19;82.10;98505.56;4160645;28;20132;-71
2022/04/13 06:02:18;;;;;;;12.57;7.30;;;;;;;5.24;81.92;98510.84;4164061;28;20037;-71
2022/04/13 06:04:18;;;;;;;6.47;5.50;;;;;;;5.30;82.05;98504.78;4166059;28;20024;-72
2022/04/13 06:06:18;;;;;;;9.45;5.45;;;;;;;5.40;82.88;98514.50;4160517;28;20413;-72
2022/04/13 06:08:19;;;;;;;11.43;8.10;;;;;;;5.46;81.64;98513.13;4163324;28;20295;-72
2022/04/13 06:10:19;;;;;;;9.13;6.20;;;;;;;5.53;82.50;98512.53;4168868;28;20021;-72
2022/04/13 06:12:23;;;;;;;24.10;12.52;;;;;;;5.58;83.11;98521.34;4159751;28;23676;-71
2022/04/13 06:14:24;;;;;;;9.70;7.10;;;;;;;5.65;82.51;98520.78;4160372;28;20099;-71
2022/04/13 06:16:24;;;;;;;9.68;6.13;;;;;;;5.74;82.28;98524.19;4163919;28;20436;-73
2022/04/13 06:18:24;;;;;;;10.57;5.95;;;;;;;5.84;81.65;98531.16;4161138;28;20428;-73
2022/04/13 06:20:25;;;;;;;9.23;6.40;;;;;;;5.96;81.16;98533.94;4163691;28;20069;-73
2022/04/13 06:22:25;;;;;;;10.90;6.95;;;;;;;6.08;81.74;98536.66;4165050;28;20045;-72
2022/04/13 06:24:25;;;;;;;9.82;6.70;;;;;;;6.19;81.14;98536.97;4162024;28;20039;-73
2022/04/13 06:26:26;;;;;;;8.52;5.57;;;;;;;6.31;80.97;98534.19;4159476;28;20049;-72
2022/04/13 06:28:26;;;;;;;7.53;5.13;;;;;;;6.46;80.45;98532.66;4159777;28;20720;-72
2022/04/13 06:30:26;;;;;;;7.38;5.70;;;;;;;6.59;81.02;98536.13;4162399;28;20053;-72
2022/04/13 06:32:40;;;;;;;15.23;10.00;;;;;;;6.71;82.22;98533.34;4159929;28;20143;-72
2022/04/13 06:34:41;;;;;;;11.57;8.05;;;;;;;6.77;82.12;98537.44;4162384;28;20203;-72
2022/04/13 06:36:41;;;;;;;10.13;8.45;;;;;;;6.85;82.90;98530.97;4161198;28;20103;-72
2022/04/13 06:38:42;;;;;;;12.25;8.90;;;;;;;6.95;83.10;98549.72;4164083;28;20037;-72
2022/04/13 06:40:42;;;;;;;8.13;6.28;;;;;;;6.97;84.66;98546.63;4165405;28;20761;-72
2022/04/13 06:42:43;;;;;;;12.27;6.60;;;;;;;7.03;82.14;98550.69;4159592;28;20037;-72
2022/04/13 06:44:44;;;;;;;8.75;6.00;;;;;;;7.11;82.23;98549.72;4164577;28;20104;-72
2022/04/13 06:46:44;;;;;;;7.25;5.80;;;;;;;7.22;80.64;98539.81;4164471;28;20428;-73
2022/04/13 06:48:44;;;;;;;15.75;6.40;;;;;;;7.31;81.48;98545.16;4161727;28;20043;-73
2022/04/13 06:50:45;;;;;;;7.28;6.18;;;;;;;7.36;79.29;98544.88;4159582;28;20481;-73
2022/04/13 06:52:45;;;;;;;18.80;7.53;;;;;;;7.44;79.45;98549.38;4164006;28;20064;-73
2022/04/13 06:54:45;;;;;;;9.48;6.47;;;;;;;7.52;79.28;98555.88;4160208;28;20381;-73
2022/04/13 06:56:46;;;;;;;7.90;5.88;;;;;;;7.58;79.04;98554.47;4161300;28;20029;-73
2022/04/13 06:58:48;;;;;;;11.95;6.00;;;;;;;7.64;76.45;98553.03;4163001;28;20067;-72
2022/04/13 07:00:49;;;;;;;8.60;5.75;;;;;;;7.74;75.77;98557.19;4155920;28;20058;-72
2022/04/13 07:02:49;;;;;;;8.77;5.00;;;;;;;7.82;73.80;98562.53;4163069;28;20047;-72
2022/04/13 07:04:49;;;;;;;6.05;5.35;;;;;;;7.93;73.18;98560.00;4161339;28;20045;-72
2022/04/13 07:06:50;;;;;;;6.15;4.90;;;;;;;8.01;71.56;98564.53;4160792;28;20136;-73
2022/04/13 07:08:50;;;;;;;12.02;6.57;;;;;;;8.11;71.30;98565.94;4165106;28;20029;-72
2022/04/13 07:10:50;;;;;;;9.55;6.38;;;;;;;8.19;71.91;98567.69;4159733;28;20054;-72
2022/04/13 07:12:51;;;;;;;7.25;6.05;;;;;;;8.29;71.48;98569.88;4159360;28;20516;-73
2022/04/13 07:14:51;;;;;;;8.65;5.70;;;;;;;8.37;71.51;98571.69;4161860;28;20744;-72
2022/04/13 07:16:51;;;;;;;7.82;5.10;;;;;;;8.53;71.52;98577.13;4159506;28;20080;-73
2022/04/13 07:18:52;;;;;;;8.55;5.80;;;;;;;8.67;70.18;98571.88;4156900;28;20056;-73
2022/04/13 07:20:52;;;;;;;9.13;5.85;;;;;;;8.79;69.68;98573.72;4159520;28;20355;-73
2022/04/13 07:22:53;;;;;;;10.55;5.68;;;;;;;8.90;69.89;98573.91;4161346;28;20388;-73
2022/04/13 07:24:54;;;;;;;8.45;6.20;;;;;;;9.01;69.43;98575.72;4158561;28;20049;-72
2022/04/13 07:26:54;;;;;;;6.47;5.53;;;;;;;9.12;68.05;98578.69;4158358;28;20078;-73
2022/04/13 07:28:55;;;;;;;10.32;5.90;;;;;;;9.21;68.57;98575.69;4160254;28;20045;-73
2022/04/13 07:30:55;;;;;;;9.70;6.80;;;;;;;9.29;68.98;98580.97;4158035;28;20519;-72
2022/04/13 07:32:57;;;;;;;8.95;7.88;;;;;;;9.39;68.32;98581.53;4162937;28;20044;-72
2022/04/13 07:35:02;;;;;;;9.45;6.50;;;;;;;9.50;69.05;98580.53;4159745;28;20049;-73
2022/04/13 07:37:04;;;;;;;8.27;6.10;;;;;;;9.60;68.87;98581.91;4157345;28;20037;-73
2022/04/13 07:39:05;;;;;;;7.97;6.13;;;;;;;9.65;68.66;98573.31;4157585;28;20064;-73
2022/04/13 07:41:05;;;;;;;7.70;5.55;;;;;;;9.76;68.93;98579.81;4159960;28;20037;-72
2022/04/13 07:43:07;;;;;;;8.02;5.82;;;;;;;9.83;68.40;98581.88;4155400;28;20073;-73
2022/04/13 07:45:08;;;;;;;7.72;6.15;;;;;;;9.91;68.40;98578.06;4159617;28;20478;-73
2022/04/13 07:47:09;;;;;;;9.82;7.05;;;;;;;10.00;70.16;98575.81;4163877;28;20123;-73
2022/04/13 07:49:09;;;;;;;10.93;7.20;;;;;;;10.08;70.52;98577.53;4163363;28;20126;-73
2022/04/13 07:51:09;;;;;;;11.95;6.78;;;;;;;10.22;69.23;98578.94;4159787;28;20083;-72
2022/04/13 07:53:11;;;;;;;9.20;6.88;;;;;;;10.32;68.76;98576.34;4160947;28;20696;-73
2022/04/13 07:55:12;;;;;;;8.50;5.97;;;;;;;10.44;67.58;98580.84;4159562;28;20069;-73
2022/04/13 07:57:13;;;;;;;9.45;6.50;;;;;;;10.52;68.16;98587.28;4155395;28;20517;-72
2022/04/13 07:59:13;;;;;;;8.95;5.75;;;;;;;10.56;67.35;98583.38;4157414;28;20045;-72
2022/04/13 08:01:14;;;;;;;9.70;5.78;;;;;;;10.59;66.83;98579.06;4160694;28;20050;-72
2022/04/13 08:03:15;;;;;;;9.00;6.47;;;;;;;10.65;67.39;98580.31;4162127;28;20106;-72
2022/04/13 08:05:15;;;;;;;8.95;6.93;;;;;;;10.68;67.67;98580.38;4160904;28;20432;-72
2022/04/13 08:07:16;;;;;;;10.85;6.47;;;;;;;10.76;67.44;98591.53;4160879;28;20565;-72
2022/04/13 08:09:16;;;;;;;10.00;6.20;;;;;;;10.80;67.75;98584.06;4161173;28;20409;-72
2022/04/13 08:11:16;;;;;;;11.77;6.63;;;;;;;10.89;67.17;98595.66;4164240;28;20492;-73
2022/04/13 08:13:17;;;;;;;9.45;6.22;;;;;;;10.97;66.50;98592.59;4156357;28;20037;-72
2022/04/13 08:15:17;;;;;;;13.95;6.82;;;;;;;11.11;64.77;98597.50;4160810;28;20261;-72
2022/04/13 08:17:17;;;;;;;11.02;6.50;;;;;;;11.17;65.23;98584.09;4158590;28;20128;-72
2022/04/13 08:19:18;;;;;;;9.15;6.72;;;;;;;11.29;65.65;98592.16;4157571;28;20045;-72
2022/04/13 08:21:18;;;;;;;11.07;6.18;;;;;;;11.43;66.13;98588.72;4165570;28;20063;-72
2022/04/13 08:23:18;;;;;;;10.57;7.00;;;;;;;11.58;67.44;98593.22;4156700;28;20087;-72
2022/04/13 08:25:19;;;;;;;10.43;6.63;;;;;;;11.75;67.16;98586.22;4164108;28;20481;-72
2022/04/13 08:27:20;;;;;;;12.25;6.35;;;;;;;11.91;65.10;98580.44;4160751;28;20029;-72
2022/04/13 08:29:20;;;;;;;10.90;6.22;;;;;;;12.02;64.52;98590.47;4158934;28;20124;-72
2022/04/13 08:31:20;;;;;;;9.90;6.15;;;;;;;12.10;63.85;98594.09;4160950;28;20073;-72
2022/04/13 08:33:21;;;;;;;9.15;6.47;;;;;;;12.22;65.08;98590.19;4161570;28;20817;-72
2022/04/13 08:35:21;;;;;;;8.77;5.75;;;;;;;12.30;64.71;98592.63;4163746;28;20483;-72
2022/04/13 08:37:24;;;;;;;9.13;5.80;;;;;;;12.35;64.46;98583.94;4162011;28;20047;-72
2022/04/13 08:39:25;;;;;;;11.60;6.68;;;;;;;12.48;66.44;98597.47;4162519;28;20048;-72
2022/04/13 08:41:45;;;;;;;8.68;6.72;;;;;;;12.63;64.91;98596.38;4162492;28;20041;-72
2022/04/13 08:43:58;;;;;;;11.23;6.30;;;;;;;12.80;63.70;98595.66;4161250;28;20064;-72
2022/04/13 08:45:59;;;;;;;;;;;;;;;12.97;61.58;98605.25;4163130;28;20124;-72
2022/04/13 08:48:04;;;;;;;10.75;6.30;;;;;;;13.08;62.12;98599.75;4156239;28;19909;-72
2022/04/13 08:50:06;;;;;;;11.45;6.55;;;;;;;13.19;61.17;98592.25;4159390;28;20065;-73
2022/04/13 08:52:09;;;;;;;12.38;6.35;;;;;;;13.28;61.47;98600.25;4160777;28;20381;-72
2022/04/13 08:54:20;;;;;;;9.57;5.85;;;;;;;13.41;59.39;98591.16;4160018;28;20052;-72
2022/04/13 08:56:22;;;;;;;10.23;6.75;;;;;;;13.53;61.68;98592.75;4158202;28;20450;-72
2022/04/13 08:58:29;;;;;;;9.35;6.03;;;;;;;13.70;59.49;98588.38;4159003;28;20041;-72
2022/04/13 09:00:34;;;;;;;7.82;5.93;;;;;;;13.82;60.02;98593.56;4162146;28;20056;-73
2022/04/13 09:03:00;;;;;;;9.30;6.32;;;;;;;13.92;59.03;98586.41;4160993;28;20393;-72
2022/04/13 09:05:01;;;;;;;9.57;5.47;;;;;;;14.04;58.94;98583.22;4158866;28;20041;-72
2022/04/13 09:07:03;;;;;;;7.97;5.78;;;;;;;14.13;57.33;98586.38;4158724;28;20045;-72
2022/04/13 09:09:08;;;;;;;7.25;5.00;;;;;;;14.28;56.53;98587.97;4160403;28;20486;-72
2022/04/13 09:11:10;;;;;;;7.07;4.07;;;;;;;14.49;51.46;98589.16;4163009;28;20041;-72
2022/04/13 09:13:11;;;;;;;8.05;4.28;;;;;;;14.61;50.32;98592.28;4161606;28;20044;-72
2022/04/13 09:15:13;;;;;;;6.65;4.80;;;;;;;14.74;51.30;98597.44;4165060;28;20053;-72
2022/04/13 09:17:13;;;;;;;8.43;4.50;;;;;;;14.98;50.04;98596.56;4159946;28;20044;-72
2022/04/13 09:19:14;;;;;;;6.22;4.22;;;;;;;15.16;49.66;98602.03;4164737;28;20037;-72
2022/04/13 09:21:18;;;;;;;7.72;5.10;;;;;;;15.29;52.12;98602.38;4161193;28;20412;-72
2022/04/13 09:23:20;;;;;;;5.38;4.13;;;;;;;15.45;48.08;98597.09;4159347;28;20042;-72
2022/04/13 09:25:21;;;;;;;7.20;4.03;;;;;;;15.55;44.50;98603.81;4160938;28;20042;-72
2022/04/13 09:27:23;;;;;;;7.20;4.22;;;;;;;15.54;44.78;98600.22;4160468;28;20140;-72
2022/04/13 09:29:23;;;;;;;5.95;4.18;;;;;;;15.63;43.73;98595.00;4158358;28;20125;-72
2022/04/13 09:31:24;;;;;;;6.50;4.07;;;;;;;15.69;45.04;98603.75;4157412;28;20132;-72
2022/04/13 09:33:25;;;;;;;5.57;4.35;;;;;;;15.78;45.66;98604.06;4155993;28;20030;-72
2022/04/13 09:35:26;;;;;;;6.68;4.03;;;;;;;15.90;45.08;98592.44;4159789;28;20052;-72
2022/04/13 09:37:26;;;;;;;6.22;4.18;;;;;;;15.98;45.61;98599.53;4157844;28;20384;-72